createdAt,value
2023-03-28T05:51:30.406Z,-1.15
2023-03-28T05:54:33.196Z,-1.08
2023-03-28T05:57:35.706Z,-0.94
2023-03-28T06:00:38.329Z,-0.42
2023-03-28T06:03:42.558Z,0.14
2023-03-28T06:06:48.633Z,0.58
2023-03-28T06:09:51.232Z,1.02
2023-03-28T06:12:53.716Z,0.88
2023-03-28T06:15:56.324Z,1.39
2023-03-28T06:19:10.497Z,1.26
2023-03-28T06:22:21.188Z,1.40
2023-03-28T06:25:23.761Z,1.53
2023-03-28T06:28:26.568Z,1.47
2023-03-28T06:31:29.153Z,1.39
2023-03-28T06:34:31.715Z,1.74
2023-03-28T06:37:35.733Z,1.70
2023-03-28T06:40:38.397Z,1.26
2023-03-28T06:43:41.488Z,1.07
2023-03-28T06:46:43.999Z,1.64
2023-03-28T06:49:46.525Z,1.62
2023-03-28T06:52:50.541Z,1.46
2023-03-28T06:55:53.543Z,1.10
2023-03-28T06:58:56.105Z,1.54
2023-03-28T07:01:58.652Z,1.93
2023-03-28T07:05:01.234Z,1.20
2023-03-28T07:08:05.531Z,0.80
2023-03-28T07:11:08.265Z,1.09
2023-03-28T07:14:10.975Z,1.19
2023-03-28T07:17:13.582Z,1.47
2023-03-28T07:20:16.281Z,1.37
2023-03-28T07:23:20.136Z,1.51
2023-03-28T07:26:22.832Z,2.34
2023-03-28T07:29:25.539Z,1.50
2023-03-28T07:32:38.669Z,1.50
2023-03-28T07:35:45.520Z,1.41
2023-03-28T07:38:49.668Z,1.63
2023-03-28T07:41:52.238Z,1.38
2023-03-28T07:44:54.903Z,1.60
2023-03-28T07:47:57.595Z,1.82
2023-03-28T07:51:00.663Z,2.23
2023-03-28T07:54:05.907Z,2.16
2023-03-28T07:57:08.524Z,2.12
2023-03-28T08:00:13.143Z,1.90
2023-03-28T08:03:16.660Z,2.36
2023-03-28T08:06:31.706Z,1.60
2023-03-28T08:09:36.104Z,1.06
2023-03-28T08:12:38.705Z,0.95
2023-03-28T08:15:41.453Z,0.83
2023-03-28T08:18:44.023Z,0.66
2023-03-28T08:21:46.594Z,0.49
2023-03-28T08:24:50.510Z,0.57
2023-03-28T08:27:53.011Z,1.15
2023-03-28T08:30:55.551Z,1.72
2023-03-28T08:33:58.581Z,1.78
2023-03-28T08:37:01.129Z,1.48
2023-03-28T08:40:10.921Z,1.33
2023-03-28T08:43:33.806Z,1.38
2023-03-28T08:46:39.500Z,1.13
2023-03-28T08:49:47.116Z,1.06
2023-03-28T08:52:49.912Z,2.04
2023-03-28T08:55:56.440Z,2.04
2023-03-28T08:59:06.365Z,2.23
2023-03-28T09:02:18.609Z,2.26
2023-03-28T09:05:30.449Z,2.26
2023-03-28T09:08:48.981Z,2.44
2023-03-28T09:12:03.616Z,2.35
2023-03-28T09:15:24.726Z,2.92
2023-03-28T09:19:04.779Z,3.19
2023-03-28T09:22:19.797Z,3.38
2023-03-28T09:25:30.698Z,2.80
2023-03-28T09:28:43.757Z,2.36
2023-03-28T09:31:48.686Z,2.01
2023-03-28T09:34:52.593Z,2.18
2023-03-28T09:37:59.381Z,2.17
2023-03-28T09:41:08.340Z,2.60
2023-03-28T09:44:16.834Z,2.83
2023-03-28T09:47:19.313Z,3.03
2023-03-28T09:50:21.983Z,2.53
2023-03-28T09:53:27.452Z,2.91
2023-03-28T09:56:34.125Z,2.78
2023-03-28T09:59:38.187Z,2.59
2023-03-28T10:02:40.913Z,2.74
2023-03-28T10:05:45.176Z,2.60
2023-03-28T10:08:47.732Z,2.70
2023-03-28T10:11:54.426Z,3.63
2023-03-28T10:14:58.588Z,3.36
2023-03-28T10:18:03.196Z,2.89
2023-03-28T10:21:11.790Z,2.97
2023-03-28T10:24:17.311Z,3.12
2023-03-28T10:27:23.945Z,2.80
2023-03-28T10:30:30.463Z,2.61
2023-03-28T10:33:34.956Z,2.99
2023-03-28T10:36:42.907Z,2.81
2023-03-28T10:39:59.801Z,2.80
2023-03-28T10:43:02.397Z,2.72
2023-03-28T10:46:14.175Z,2.97
2023-03-28T10:49:20.042Z,3.31
2023-03-28T10:52:33.222Z,3.64
2023-03-28T10:55:40.562Z,4.57
2023-03-28T10:58:53.875Z,4.02
2023-03-28T11:02:13.207Z,3.77
2023-03-28T11:05:38.578Z,3.67
2023-03-28T11:08:55.201Z,3.84
2023-03-28T11:12:07.814Z,4.24
2023-03-28T11:15:17.273Z,5.24
2023-03-28T11:18:36.239Z,4.89
2023-03-28T11:21:49.012Z,3.88
2023-03-28T11:24:59.032Z,3.57
2023-03-28T11:28:08.606Z,4.01
2023-03-28T11:31:16.323Z,4.08
2023-03-28T11:34:27.604Z,4.45
2023-03-28T11:37:38.206Z,4.03
2023-03-28T11:40:50.424Z,3.67
2023-03-28T11:43:58.311Z,3.50
2023-03-28T11:47:12.091Z,4.09
2023-03-28T11:50:23.808Z,3.57
2023-03-28T11:53:30.581Z,3.75
2023-03-28T11:56:46.286Z,5.11
2023-03-28T11:59:55.962Z,5.59
2023-03-28T12:03:07.701Z,5.61
2023-03-28T12:06:13.968Z,5.56
2023-03-28T12:09:29.097Z,4.79
2023-03-28T12:12:34.179Z,4.06
2023-03-28T12:15:42.964Z,4.18
2023-03-28T12:18:48.974Z,4.58
2023-03-28T12:21:58.874Z,4.09
2023-03-28T12:25:07.299Z,3.69
2023-03-28T12:28:16.015Z,4.40
2023-03-28T12:31:27.001Z,5.49
2023-03-28T12:34:35.686Z,5.07
2023-03-28T12:37:48.802Z,4.92
2023-03-28T12:40:57.602Z,5.62
2023-03-28T12:44:05.022Z,5.74
2023-03-28T12:47:12.480Z,5.76
2023-03-28T12:50:21.933Z,5.43
2023-03-28T12:53:27.514Z,5.11
2023-03-28T12:56:29.998Z,5.09
2023-03-28T13:00:04.758Z,5.66
2023-03-28T13:03:18.368Z,6.37
2023-03-28T13:06:28.841Z,5.46
2023-03-28T13:09:48.372Z,5.89
2023-03-28T13:13:06.379Z,6.11
2023-03-28T13:16:16.535Z,6.46
2023-03-28T13:19:20.262Z,6.25
2023-03-28T13:22:29.838Z,6.79
2023-03-28T13:25:44.686Z,6.55
2023-03-28T13:28:51.485Z,6.62
2023-03-28T13:32:06.725Z,6.87
2023-03-28T13:35:39.604Z,6.72
2023-03-28T13:38:50.743Z,6.43
2023-03-28T13:41:59.930Z,6.83
2023-03-28T13:45:05.134Z,6.90
2023-03-28T13:51:20.089Z,6.81
2023-03-28T13:54:23.781Z,6.90
2023-03-28T13:57:28.196Z,7.11
2023-03-28T14:00:31.206Z,7.44
2023-03-28T14:03:36.930Z,7.07
2023-03-28T14:06:42.529Z,6.30
2023-03-28T14:09:45.048Z,7.42
2023-03-28T14:12:49.215Z,7.42
2023-03-28T14:15:53.835Z,7.14
2023-03-28T14:18:56.431Z,7.50
2023-03-28T14:22:00.369Z,7.16
2023-03-28T14:25:06.327Z,7.33
2023-03-28T14:28:09.779Z,6.75
2023-03-28T14:31:14.409Z,6.15
2023-03-28T14:34:23.991Z,6.59
2023-03-28T14:37:29.865Z,7.67
2023-03-28T14:40:35.556Z,7.40
2023-03-28T14:43:38.200Z,6.96
2023-03-28T14:46:41.277Z,6.32
2023-03-28T14:49:45.733Z,6.03
2023-03-28T14:52:49.935Z,6.60
2023-03-28T14:55:54.573Z,5.94
2023-03-28T14:59:01.449Z,6.63
2023-03-28T15:02:06.147Z,6.97
2023-03-28T15:05:11.518Z,6.70
2023-03-28T15:08:26.800Z,6.48
2023-03-28T15:11:32.496Z,6.96
2023-03-28T15:14:41.163Z,7.12
2023-03-28T15:17:45.913Z,6.59
2023-03-28T15:20:52.627Z,6.73
2023-03-28T15:24:01.438Z,6.60
2023-03-28T15:27:07.459Z,6.83
2023-03-28T15:30:16.309Z,6.00
2023-03-28T15:33:21.071Z,6.01
2023-03-28T15:36:25.953Z,6.20
2023-03-28T15:39:32.471Z,6.24
2023-03-28T15:42:37.112Z,6.35
2023-03-28T15:45:43.851Z,6.47
2023-03-28T15:48:46.381Z,6.48
2023-03-28T15:51:51.572Z,6.19
2023-03-28T15:54:56.474Z,6.43
2023-03-28T15:57:59.584Z,6.26
2023-03-28T16:01:26.989Z,6.20
2023-03-28T16:04:29.613Z,5.97
2023-03-28T16:07:37.023Z,5.95
2023-03-28T16:10:40.953Z,6.03
2023-03-28T16:13:43.518Z,6.09
2023-03-28T16:16:46.495Z,6.15
2023-03-28T16:19:49.994Z,6.11
2023-03-28T16:22:52.500Z,5.97
2023-03-28T16:25:56.501Z,5.70
2023-03-28T16:28:58.969Z,5.74
2023-03-28T16:32:01.680Z,5.51
2023-03-28T16:35:04.795Z,5.18
2023-03-28T16:38:07.634Z,5.06
2023-03-28T16:41:11.630Z,4.78
2023-03-28T16:44:14.115Z,4.53
2023-03-28T16:47:16.624Z,4.34
2023-03-28T16:50:19.127Z,4.10
2023-03-28T16:53:21.680Z,4.27
2023-03-28T16:56:27.530Z,4.12
2023-03-28T16:59:30.006Z,4.04
2023-03-28T17:02:32.602Z,4.00
2023-03-28T17:05:37.359Z,3.81
2023-03-28T17:08:40.877Z,3.66
2023-03-28T17:11:44.718Z,3.55
2023-03-28T17:14:47.219Z,3.44
2023-03-28T17:17:49.719Z,3.31
2023-03-28T17:21:01.208Z,3.26
2023-03-28T17:24:04.757Z,3.13
2023-03-28T17:27:09.091Z,2.97
2023-03-28T17:30:12.981Z,2.77
2023-03-28T17:33:15.564Z,2.68
2023-03-28T17:36:22.025Z,2.44
2023-03-28T17:39:24.851Z,2.22
2023-03-28T17:42:28.722Z,2.04
2023-03-28T17:45:31.247Z,1.78
2023-03-28T17:48:33.742Z,1.64
2023-03-28T17:51:36.453Z,1.57
2023-03-28T17:54:39.236Z,1.47
2023-03-28T17:57:43.027Z,1.24
2023-03-28T18:00:45.538Z,1.04
2023-03-28T18:03:48.092Z,0.91
2023-03-28T18:06:51.297Z,0.79
2023-03-28T18:09:55.031Z,0.80
2023-03-28T18:12:58.864Z,0.87
2023-03-28T18:16:01.659Z,0.77
2023-03-28T18:19:06.760Z,0.66
2023-03-28T18:22:09.632Z,0.68
2023-03-28T18:25:12.114Z,0.64
2023-03-28T18:28:16.008Z,0.61
2023-03-28T18:31:27.679Z,0.48
2023-03-28T18:34:30.921Z,0.37
2023-03-28T18:37:33.741Z,0.25
2023-03-28T18:40:36.469Z,0.17
2023-03-28T18:43:42.094Z,0.02
2023-03-28T18:46:44.676Z,-0.12
2023-03-28T18:49:47.129Z,-0.25
2023-03-28T18:52:49.659Z,-0.37
2023-03-28T18:55:52.562Z,-0.44
2023-03-28T18:58:57.249Z,-0.49
2023-03-28T19:02:00.892Z,-0.51
2023-03-28T19:05:03.463Z,-0.55
2023-03-28T19:08:06.314Z,-0.60
2023-03-28T19:11:11.713Z,-0.66
2023-03-28T19:14:15.669Z,-0.70
2023-03-28T19:17:18.147Z,-0.72
2023-03-28T19:20:20.754Z,-0.77
2023-03-28T19:23:23.230Z,-0.74
2023-03-28T19:26:26.244Z,-0.75
2023-03-28T19:29:32.006Z,-0.86
2023-03-28T19:32:34.634Z,-0.92
2023-03-28T19:35:38.432Z,-0.96
2023-03-28T19:38:41.429Z,-0.94
2023-03-28T19:41:44.014Z,-0.98
2023-03-28T19:44:47.836Z,-0.97
2023-03-28T19:47:50.542Z,-0.98
2023-03-28T19:50:53.048Z,-0.97
2023-03-28T19:53:55.956Z,-0.94
